DLH5MC EDDM-LPFR
Flight info
| Callsign | DLH5MC |
|---|---|
| Flight time | N/A |
| Altitude | 35000 |
| Route | ALG2E/08R ALG Y109 UMTEX Y100 TRA/N0448F370 DCT LUTIX DCT BENOT DCT NEMOS DCT NINTU DCT MEBAK DCT REPSI DCT LERGA DCT MINSO DCT NARAK DCT AGN DCT LATEK DCT PPN DCT MIRPO DCT DGO DCT NEA L14 ADINO DCT ELVAR DCT ALAGU DCT USALU |
| Aircraft | A21N/M-SDE2E3FGHIRWXY/LB1 |
Departure
| Time | N/A |
|---|---|
| Airport | Munich Airport (EDDM) |
Arrival
| Time | 2026-04-29 13:48 |
|---|---|
| Airport | Faro - Gago Coutinho International Airport (LPFR) |
| Time | Latitude | Longitude | Altitude | Speed | Heading |
|---|---|---|---|---|---|
| 2026-04-29 11:36 | 46.32290 | 5.85832 | 35099 ft | 425 kts | 233° |
| 2026-04-29 11:36 | 46.28518 | 5.79249 | 35098 ft | 425 kts | 233° |
| 2026-04-29 11:37 | 46.24743 | 5.72678 | 35088 ft | 425 kts | 233° |
| 2026-04-29 11:37 | 46.20962 | 5.66114 | 35078 ft | 425 kts | 233° |
| 2026-04-29 11:38 | 46.17171 | 5.59550 | 35068 ft | 426 kts | 233° |
| 2026-04-29 11:38 | 46.13550 | 5.52886 | 35057 ft | 424 kts | 237° |
| 2026-04-29 11:39 | 46.10199 | 5.45891 | 35061 ft | 424 kts | 238° |
| 2026-04-29 11:39 | 46.06854 | 5.38902 | 35052 ft | 424 kts | 238° |
| 2026-04-29 11:40 | 46.03491 | 5.31917 | 35041 ft | 425 kts | 238° |
| 2026-04-29 11:40 | 46.00119 | 5.24927 | 35048 ft | 425 kts | 237° |
| 2026-04-29 11:41 | 45.96739 | 5.17941 | 35045 ft | 425 kts | 237° |
| 2026-04-29 11:41 | 45.93357 | 5.10966 | 35047 ft | 425 kts | 237° |
| 2026-04-29 11:42 | 45.89973 | 5.04016 | 35053 ft | 425 kts | 237° |
| 2026-04-29 11:42 | 45.86591 | 4.97066 | 35052 ft | 425 kts | 237° |
| 2026-04-29 11:43 | 45.83201 | 4.90130 | 35049 ft | 425 kts | 237° |
| 2026-04-29 11:43 | 45.79803 | 4.83198 | 35052 ft | 425 kts | 237° |
| 2026-04-29 11:44 | 45.76405 | 4.76271 | 35051 ft | 425 kts | 237° |
| 2026-04-29 11:44 | 45.73002 | 4.69361 | 35047 ft | 424 kts | 237° |
| 2026-04-29 11:45 | 45.69607 | 4.62487 | 35033 ft | 423 kts | 237° |
| 2026-04-29 11:45 | 45.66213 | 4.55618 | 35027 ft | 423 kts | 237° |
| 2026-04-29 11:46 | 45.62810 | 4.48747 | 35022 ft | 423 kts | 237° |
| 2026-04-29 11:46 | 45.59403 | 4.41891 | 35024 ft | 423 kts | 237° |
| 2026-04-29 11:47 | 45.56571 | 4.36200 | 35025 ft | 423 kts | 237° |
| 2026-04-29 11:47 | 45.53155 | 4.29355 | 35016 ft | 423 kts | 237° |
| 2026-04-29 11:48 | 45.49741 | 4.22534 | 35020 ft | 422 kts | 236° |
| 2026-04-29 11:48 | 45.46327 | 4.15734 | 35020 ft | 422 kts | 236° |
| 2026-04-29 11:49 | 45.42906 | 4.08932 | 35028 ft | 423 kts | 236° |
| 2026-04-29 11:49 | 45.39479 | 4.02136 | 35011 ft | 422 kts | 236° |
| 2026-04-29 11:50 | 45.36049 | 3.95352 | 35000 ft | 422 kts | 236° |
| 2026-04-29 11:50 | 45.32613 | 3.88569 | 35016 ft | 423 kts | 236° |
| 2026-04-29 11:51 | 45.29164 | 3.81774 | 35025 ft | 425 kts | 235° |
| 2026-04-29 11:51 | 45.25710 | 3.74976 | 35030 ft | 425 kts | 236° |
| 2026-04-29 11:52 | 45.22326 | 3.68106 | 35004 ft | 424 kts | 236° |
| 2026-04-29 11:52 | 45.18947 | 3.61244 | 34991 ft | 425 kts | 236° |
| 2026-04-29 11:53 | 45.15585 | 3.54434 | 34986 ft | 424 kts | 236° |
| 2026-04-29 11:53 | 45.12192 | 3.47579 | 34994 ft | 425 kts | 236° |
| 2026-04-29 11:54 | 45.08790 | 3.40728 | 34988 ft | 426 kts | 236° |
| 2026-04-29 11:54 | 45.05381 | 3.33880 | 34985 ft | 426 kts | 236° |
| 2026-04-29 11:55 | 45.01967 | 3.27034 | 34988 ft | 426 kts | 236° |
| 2026-04-29 11:55 | 44.98551 | 3.20197 | 34988 ft | 426 kts | 235° |
| 2026-04-29 11:56 | 44.95130 | 3.13373 | 34991 ft | 426 kts | 235° |
| 2026-04-29 11:56 | 44.91712 | 3.06563 | 34976 ft | 425 kts | 235° |
| 2026-04-29 11:57 | 44.88304 | 2.99797 | 34989 ft | 423 kts | 234° |
| 2026-04-29 11:57 | 44.84913 | 2.93051 | 34985 ft | 421 kts | 236° |
| 2026-04-29 11:58 | 44.81703 | 2.86119 | 34987 ft | 422 kts | 237° |
| 2026-04-29 11:58 | 44.78520 | 2.79199 | 34985 ft | 422 kts | 237° |
| 2026-04-29 11:59 | 44.75326 | 2.72280 | 34987 ft | 419 kts | 237° |
| 2026-04-29 11:59 | 44.72127 | 2.65373 | 34976 ft | 421 kts | 236° |
| 2026-04-29 12:00 | 44.68932 | 2.58489 | 34975 ft | 420 kts | 236° |
| 2026-04-29 12:00 | 44.65983 | 2.52152 | 34971 ft | 420 kts | 236° |
| 2026-04-29 12:01 | 44.62776 | 2.45282 | 34987 ft | 421 kts | 236° |
| 2026-04-29 12:01 | 44.59562 | 2.38411 | 34983 ft | 423 kts | 236° |
| 2026-04-29 12:02 | 44.56292 | 2.31430 | 34988 ft | 431 kts | 236° |
| 2026-04-29 12:02 | 44.52993 | 2.24404 | 34985 ft | 432 kts | 236° |
| 2026-04-29 12:03 | 44.49682 | 2.17369 | 34976 ft | 433 kts | 236° |
| 2026-04-29 12:03 | 44.46368 | 2.10347 | 34968 ft | 432 kts | 236° |
| 2026-04-29 12:04 | 44.43075 | 2.03387 | 34960 ft | 430 kts | 236° |
| 2026-04-29 12:04 | 44.39761 | 1.96398 | 34939 ft | 432 kts | 235° |
| 2026-04-29 12:05 | 44.36441 | 1.89407 | 34954 ft | 432 kts | 235° |
| 2026-04-29 12:05 | 44.33114 | 1.82417 | 34938 ft | 433 kts | 235° |
| 2026-04-29 12:06 | 44.29773 | 1.75419 | 34932 ft | 433 kts | 235° |
| 2026-04-29 12:06 | 44.26520 | 1.68352 | 34934 ft | 433 kts | 236° |
| 2026-04-29 12:07 | 44.23272 | 1.61277 | 34928 ft | 433 kts | 236° |
| 2026-04-29 12:07 | 44.20019 | 1.54216 | 34923 ft | 434 kts | 236° |
| 2026-04-29 12:08 | 44.16764 | 1.47164 | 34924 ft | 432 kts | 235° |
| 2026-04-29 12:08 | 44.13508 | 1.40128 | 34919 ft | 432 kts | 235° |
| 2026-04-29 12:09 | 44.10244 | 1.33096 | 34917 ft | 432 kts | 235° |
| 2026-04-29 12:09 | 44.06980 | 1.26070 | 34913 ft | 432 kts | 235° |
| 2026-04-29 12:10 | 44.03709 | 1.19062 | 34909 ft | 432 kts | 235° |
| 2026-04-29 12:10 | 44.00451 | 1.12092 | 34913 ft | 433 kts | 234° |
| 2026-04-29 12:11 | 43.97173 | 1.05089 | 34907 ft | 432 kts | 234° |
| 2026-04-29 12:11 | 43.93903 | 0.98126 | 34905 ft | 430 kts | 234° |
| 2026-04-29 12:12 | 43.90630 | 0.91175 | 34900 ft | 430 kts | 234° |
| 2026-04-29 12:12 | 43.87061 | 0.84566 | 34901 ft | 428 kts | 226° |
| 2026-04-29 12:13 | 43.83086 | 0.78431 | 34899 ft | 427 kts | 226° |
| 2026-04-29 12:13 | 43.79118 | 0.72323 | 34898 ft | 427 kts | 226° |
| 2026-04-29 12:14 | 43.75138 | 0.66203 | 34896 ft | 427 kts | 226° |
| 2026-04-29 12:14 | 43.71166 | 0.60096 | 34889 ft | 427 kts | 226° |
| 2026-04-29 12:15 | 43.67196 | 0.53991 | 34887 ft | 427 kts | 226° |
| 2026-04-29 12:15 | 43.63220 | 0.47894 | 34889 ft | 427 kts | 226° |
| 2026-04-29 12:16 | 43.59232 | 0.41802 | 34891 ft | 428 kts | 225° |
| 2026-04-29 12:16 | 43.55236 | 0.35702 | 34900 ft | 427 kts | 225° |
| 2026-04-29 12:17 | 43.51256 | 0.29647 | 34891 ft | 426 kts | 225° |
| 2026-04-29 12:17 | 43.47271 | 0.23600 | 34888 ft | 426 kts | 225° |
| 2026-04-29 12:18 | 43.43289 | 0.17561 | 34888 ft | 426 kts | 225° |
| 2026-04-29 12:18 | 43.39299 | 0.11529 | 34889 ft | 426 kts | 225° |
| 2026-04-29 12:19 | 43.35305 | 0.05506 | 34891 ft | 426 kts | 225° |
| 2026-04-29 12:19 | 43.31337 | -0.00468 | 34909 ft | 426 kts | 225° |
| 2026-04-29 12:20 | 43.27341 | -0.06488 | 34908 ft | 426 kts | 225° |
| 2026-04-29 12:20 | 43.23337 | -0.12500 | 34909 ft | 426 kts | 225° |
| 2026-04-29 12:21 | 43.19327 | -0.18502 | 34905 ft | 427 kts | 224° |
| 2026-04-29 12:21 | 43.15318 | -0.24487 | 34902 ft | 427 kts | 224° |
| 2026-04-29 12:22 | 43.11283 | -0.30490 | 34906 ft | 427 kts | 224° |
| 2026-04-29 12:22 | 43.07260 | -0.36467 | 34915 ft | 427 kts | 224° |
| 2026-04-29 12:23 | 43.03236 | -0.42442 | 34917 ft | 427 kts | 224° |
| 2026-04-29 12:23 | 42.99192 | -0.48424 | 34911 ft | 430 kts | 224° |
| 2026-04-29 12:24 | 42.95128 | -0.54432 | 34911 ft | 431 kts | 224° |
| 2026-04-29 12:24 | 42.91057 | -0.60433 | 34919 ft | 431 kts | 224° |
| 2026-04-29 12:25 | 42.87639 | -0.67158 | 34906 ft | 438 kts | 243° |
| 2026-04-29 12:25 | 42.86139 | -0.75284 | 34916 ft | 446 kts | 256° |
| 2026-04-29 12:26 | 42.85618 | -0.79451 | 34932 ft | 446 kts | 256° |
| 2026-04-29 12:26 | 42.84545 | -0.87780 | 34922 ft | 446 kts | 255° |
| 2026-04-29 12:27 | 42.83450 | -0.96074 | 34920 ft | 446 kts | 255° |
| 2026-04-29 12:27 | 42.82344 | -1.04401 | 34917 ft | 446 kts | 255° |
| 2026-04-29 12:28 | 42.81233 | -1.12723 | 34913 ft | 446 kts | 255° |
| 2026-04-29 12:28 | 42.80119 | -1.21023 | 34919 ft | 445 kts | 255° |
| 2026-04-29 12:29 | 42.78991 | -1.29308 | 34906 ft | 445 kts | 255° |
| 2026-04-29 12:29 | 42.77865 | -1.37577 | 34909 ft | 445 kts | 255° |
| 2026-04-29 12:30 | 42.76723 | -1.45870 | 34906 ft | 445 kts | 255° |
| 2026-04-29 12:30 | 42.75582 | -1.54156 | 34933 ft | 444 kts | 255° |
| 2026-04-29 12:31 | 42.74436 | -1.62380 | 34912 ft | 442 kts | 255° |
| 2026-04-29 12:31 | 42.73248 | -1.70521 | 34905 ft | 441 kts | 251° |
| 2026-04-29 12:32 | 42.71484 | -1.78536 | 34906 ft | 439 kts | 249° |
| 2026-04-29 12:32 | 42.69986 | -1.85118 | 34904 ft | 439 kts | 248° |
| 2026-04-29 12:33 | 42.68177 | -1.93043 | 34912 ft | 439 kts | 249° |
| 2026-04-29 12:33 | 42.66080 | -2.02256 | 34884 ft | 439 kts | 249° |
| 2026-04-29 12:34 | 42.64569 | -2.08898 | 34882 ft | 439 kts | 249° |
| 2026-04-29 12:34 | 42.62756 | -2.16825 | 34878 ft | 439 kts | 248° |
| 2026-04-29 12:35 | 42.60848 | -2.24702 | 34874 ft | 439 kts | 248° |
| 2026-04-29 12:35 | 42.58950 | -2.32512 | 34883 ft | 436 kts | 249° |
| 2026-04-29 12:36 | 42.57049 | -2.40340 | 34876 ft | 434 kts | 248° |
| 2026-04-29 12:36 | 42.55143 | -2.48117 | 34874 ft | 434 kts | 248° |
| 2026-04-29 12:37 | 42.53246 | -2.55844 | 34867 ft | 434 kts | 248° |
| 2026-04-29 12:37 | 42.51326 | -2.63651 | 34860 ft | 434 kts | 248° |
| 2026-04-29 12:38 | 42.49444 | -2.71385 | 34867 ft | 435 kts | 248° |
| 2026-04-29 12:38 | 42.47537 | -2.79163 | 34849 ft | 435 kts | 248° |
| 2026-04-29 12:39 | 42.45603 | -2.86917 | 34849 ft | 434 kts | 246° |
| 2026-04-29 12:39 | 42.43190 | -2.94363 | 34848 ft | 432 kts | 242° |
| 2026-04-29 12:40 | 42.40671 | -3.01757 | 34846 ft | 433 kts | 242° |
| 2026-04-29 12:40 | 42.38146 | -3.09151 | 34856 ft | 434 kts | 242° |
| 2026-04-29 12:41 | 42.35608 | -3.16562 | 34844 ft | 435 kts | 242° |
| 2026-04-29 12:41 | 42.33066 | -3.23992 | 34850 ft | 436 kts | 242° |
| 2026-04-29 12:42 | 42.30511 | -3.31432 | 34851 ft | 436 kts | 242° |
| 2026-04-29 12:42 | 42.27943 | -3.38858 | 34846 ft | 436 kts | 242° |
| 2026-04-29 12:43 | 42.25379 | -3.46280 | 34855 ft | 437 kts | 242° |
| 2026-04-29 12:43 | 42.22808 | -3.53715 | 34850 ft | 437 kts | 242° |
| 2026-04-29 12:44 | 42.20230 | -3.61139 | 34845 ft | 437 kts | 242° |
| 2026-04-29 12:44 | 42.17643 | -3.68555 | 34847 ft | 437 kts | 242° |
| 2026-04-29 12:45 | 42.15052 | -3.75968 | 34849 ft | 437 kts | 242° |
| 2026-04-29 12:45 | 42.12458 | -3.83374 | 34860 ft | 437 kts | 242° |
| 2026-04-29 12:46 | 42.09863 | -3.90750 | 34852 ft | 439 kts | 242° |
| 2026-04-29 12:46 | 42.07247 | -3.98190 | 34855 ft | 439 kts | 242° |
| 2026-04-29 12:47 | 42.04623 | -4.05622 | 34854 ft | 440 kts | 242° |
| 2026-04-29 12:47 | 42.01408 | -4.12523 | 34842 ft | 435 kts | 225° |
| 2026-04-29 12:48 | 41.96898 | -4.17905 | 34857 ft | 433 kts | 219° |
| 2026-04-29 12:48 | 41.92319 | -4.23171 | 34855 ft | 433 kts | 219° |
| 2026-04-29 12:49 | 41.87776 | -4.28469 | 34855 ft | 431 kts | 220° |
| 2026-04-29 12:49 | 41.83249 | -4.33754 | 34855 ft | 431 kts | 220° |
| 2026-04-29 12:50 | 41.78714 | -4.39021 | 34858 ft | 431 kts | 220° |
| 2026-04-29 12:50 | 41.74182 | -4.44294 | 34857 ft | 432 kts | 220° |
| 2026-04-29 12:51 | 41.69646 | -4.49561 | 34856 ft | 432 kts | 220° |
| 2026-04-29 12:51 | 41.65129 | -4.54788 | 34859 ft | 426 kts | 220° |
| 2026-04-29 12:52 | 41.60629 | -4.59986 | 34870 ft | 430 kts | 220° |
| 2026-04-29 12:52 | 41.56090 | -4.65218 | 34859 ft | 431 kts | 220° |
| 2026-04-29 12:53 | 41.51549 | -4.70447 | 34851 ft | 431 kts | 220° |
| 2026-04-29 12:53 | 41.47000 | -4.75670 | 34864 ft | 431 kts | 220° |
| 2026-04-29 12:54 | 41.42462 | -4.80877 | 34860 ft | 430 kts | 220° |
| 2026-04-29 12:54 | 41.37954 | -4.86035 | 34862 ft | 430 kts | 220° |
| 2026-04-29 12:55 | 41.33413 | -4.91223 | 34867 ft | 430 kts | 220° |
| 2026-04-29 12:55 | 41.28871 | -4.96398 | 34871 ft | 431 kts | 220° |
| 2026-04-29 12:56 | 41.24315 | -5.01576 | 34862 ft | 431 kts | 220° |
| 2026-04-29 12:56 | 41.19770 | -5.06731 | 34848 ft | 429 kts | 220° |
| 2026-04-29 12:57 | 41.15235 | -5.11871 | 34854 ft | 429 kts | 220° |
| 2026-04-29 12:57 | 41.10695 | -5.17004 | 34851 ft | 429 kts | 220° |
| 2026-04-29 12:58 | 41.06153 | -5.22127 | 34849 ft | 429 kts | 220° |
| 2026-04-29 12:58 | 41.01606 | -5.27247 | 34846 ft | 429 kts | 220° |
| 2026-04-29 12:59 | 40.97064 | -5.32349 | 34840 ft | 428 kts | 220° |
| 2026-04-29 12:59 | 40.92522 | -5.37436 | 34859 ft | 428 kts | 220° |
| 2026-04-29 13:00 | 40.87979 | -5.42524 | 34852 ft | 428 kts | 220° |
| 2026-04-29 13:00 | 40.83435 | -5.47609 | 34842 ft | 428 kts | 220° |
| 2026-04-29 13:01 | 40.78887 | -5.52686 | 34854 ft | 428 kts | 220° |
| 2026-04-29 13:01 | 40.74350 | -5.57738 | 34853 ft | 424 kts | 220° |
| 2026-04-29 13:02 | 40.69833 | -5.62758 | 34846 ft | 425 kts | 220° |
| 2026-04-29 13:02 | 40.65320 | -5.67772 | 34838 ft | 425 kts | 220° |
| 2026-04-29 13:03 | 40.60792 | -5.72765 | 34857 ft | 425 kts | 220° |
| 2026-04-29 13:03 | 40.56260 | -5.77772 | 34855 ft | 426 kts | 220° |
| 2026-04-29 13:04 | 40.51724 | -5.82784 | 34850 ft | 426 kts | 220° |
| 2026-04-29 13:04 | 40.47183 | -5.87777 | 34857 ft | 425 kts | 220° |
| 2026-04-29 13:05 | 40.42679 | -5.92730 | 34857 ft | 425 kts | 220° |
| 2026-04-29 13:05 | 40.38140 | -5.97717 | 34855 ft | 426 kts | 220° |
| 2026-04-29 13:06 | 40.33594 | -6.02696 | 34856 ft | 425 kts | 220° |
| 2026-04-29 13:06 | 40.29053 | -6.07664 | 34854 ft | 424 kts | 220° |
| 2026-04-29 13:07 | 40.24505 | -6.12630 | 34857 ft | 428 kts | 220° |
| 2026-04-29 13:07 | 40.19932 | -6.17622 | 34856 ft | 428 kts | 220° |
| 2026-04-29 13:08 | 40.15358 | -6.22601 | 34857 ft | 428 kts | 220° |
| 2026-04-29 13:08 | 40.10776 | -6.27579 | 34859 ft | 428 kts | 220° |
| 2026-04-29 13:09 | 40.06196 | -6.32544 | 34846 ft | 425 kts | 220° |
| 2026-04-29 13:09 | 40.01663 | -6.37456 | 34855 ft | 424 kts | 220° |
| 2026-04-29 13:10 | 39.97121 | -6.42359 | 34868 ft | 424 kts | 220° |
| 2026-04-29 13:10 | 39.92575 | -6.47249 | 34868 ft | 425 kts | 220° |
| 2026-04-29 13:11 | 39.87991 | -6.52186 | 34859 ft | 429 kts | 220° |
| 2026-04-29 13:11 | 39.83393 | -6.57124 | 34850 ft | 427 kts | 221° |
| 2026-04-29 13:12 | 39.78834 | -6.62010 | 34848 ft | 424 kts | 221° |
| 2026-04-29 13:12 | 39.74283 | -6.66882 | 34854 ft | 424 kts | 221° |
| 2026-04-29 13:13 | 39.69730 | -6.71747 | 34854 ft | 424 kts | 220° |
| 2026-04-29 13:13 | 39.65175 | -6.76616 | 34872 ft | 424 kts | 220° |
| 2026-04-29 13:14 | 39.60613 | -6.81466 | 34857 ft | 424 kts | 220° |
| 2026-04-29 13:14 | 39.56089 | -6.86277 | 34863 ft | 421 kts | 221° |
| 2026-04-29 13:15 | 39.51570 | -6.91070 | 34857 ft | 423 kts | 221° |
| 2026-04-29 13:15 | 39.46984 | -6.95930 | 34855 ft | 423 kts | 221° |
| 2026-04-29 13:16 | 39.42458 | -7.00711 | 34861 ft | 423 kts | 221° |
| 2026-04-29 13:16 | 39.37901 | -7.05521 | 34861 ft | 423 kts | 221° |
| 2026-04-29 13:17 | 39.33378 | -7.10287 | 34855 ft | 413 kts | 221° |
| 2026-04-29 13:17 | 39.28935 | -7.14964 | 34863 ft | 412 kts | 221° |
| 2026-04-29 13:18 | 39.24484 | -7.19631 | 34859 ft | 412 kts | 221° |
| 2026-04-29 13:18 | 39.19440 | -7.23246 | 34865 ft | 427 kts | 202° |
| 2026-04-29 13:19 | 39.13660 | -7.25293 | 34877 ft | 432 kts | 199° |
| 2026-04-29 13:19 | 39.07880 | -7.27261 | 34861 ft | 427 kts | 200° |
| 2026-04-29 13:20 | 39.02149 | -7.29262 | 34866 ft | 426 kts | 200° |
| 2026-04-29 13:20 | 38.96422 | -7.31263 | 34874 ft | 427 kts | 200° |
| 2026-04-29 13:21 | 38.90696 | -7.33264 | 34873 ft | 426 kts | 200° |
| 2026-04-29 13:21 | 38.85942 | -7.34916 | 34848 ft | 424 kts | 201° |
| 2026-04-29 13:22 | 38.80254 | -7.36891 | 34865 ft | 423 kts | 201° |
| 2026-04-29 13:22 | 38.74568 | -7.38872 | 34874 ft | 423 kts | 201° |
| 2026-04-29 13:23 | 38.68876 | -7.40842 | 34878 ft | 424 kts | 201° |
| 2026-04-29 13:23 | 38.66056 | -7.41820 | 34674 ft | 418 kts | 201° |
| 2026-04-29 13:23 | 38.63241 | -7.42787 | 34353 ft | 419 kts | 202° |
| 2026-04-29 13:23 | 38.60425 | -7.43761 | 34101 ft | 420 kts | 202° |
| 2026-04-29 13:24 | 38.57605 | -7.44736 | 33854 ft | 419 kts | 202° |
| 2026-04-29 13:24 | 38.54796 | -7.45705 | 33585 ft | 419 kts | 202° |
| 2026-04-29 13:24 | 38.51979 | -7.46675 | 33279 ft | 419 kts | 202° |
| 2026-04-29 13:24 | 38.49176 | -7.47637 | 32628 ft | 416 kts | 202° |
| 2026-04-29 13:25 | 38.46386 | -7.48596 | 31862 ft | 416 kts | 202° |
| 2026-04-29 13:25 | 38.40792 | -7.50520 | 30277 ft | 416 kts | 202° |
| 2026-04-29 13:25 | 38.37992 | -7.51482 | 29427 ft | 418 kts | 202° |
| 2026-04-29 13:26 | 38.35179 | -7.52448 | 28472 ft | 419 kts | 202° |
| 2026-04-29 13:26 | 38.32362 | -7.53410 | 27500 ft | 421 kts | 202° |
| 2026-04-29 13:26 | 38.29494 | -7.54400 | 26597 ft | 429 kts | 202° |
| 2026-04-29 13:26 | 38.26610 | -7.55387 | 25695 ft | 429 kts | 201° |
| 2026-04-29 13:27 | 38.23732 | -7.56369 | 24839 ft | 428 kts | 201° |
| 2026-04-29 13:27 | 38.20875 | -7.57341 | 24148 ft | 421 kts | 201° |
| 2026-04-29 13:27 | 38.18062 | -7.58303 | 23348 ft | 417 kts | 201° |
| 2026-04-29 13:27 | 38.15280 | -7.59259 | 22504 ft | 414 kts | 201° |
| 2026-04-29 13:28 | 38.12518 | -7.60203 | 21978 ft | 406 kts | 201° |
| 2026-04-29 13:28 | 38.09799 | -7.61067 | 21605 ft | 403 kts | 198° |
| 2026-04-29 13:28 | 38.06949 | -7.61486 | 21259 ft | 413 kts | 189° |
| 2026-04-29 13:28 | 38.04098 | -7.61521 | 20763 ft | 407 kts | 187° |
| 2026-04-29 13:29 | 38.01287 | -7.61503 | 20190 ft | 402 kts | 186° |
| 2026-04-29 13:29 | 37.98496 | -7.61485 | 19683 ft | 400 kts | 186° |
| 2026-04-29 13:29 | 37.95728 | -7.61476 | 19156 ft | 396 kts | 186° |
| 2026-04-29 13:29 | 37.92987 | -7.61470 | 18579 ft | 392 kts | 186° |
| 2026-04-29 13:30 | 37.90270 | -7.61472 | 17972 ft | 388 kts | 186° |
| 2026-04-29 13:30 | 37.87582 | -7.61474 | 17289 ft | 384 kts | 186° |
| 2026-04-29 13:30 | 37.84919 | -7.61473 | 16714 ft | 382 kts | 186° |
| 2026-04-29 13:30 | 37.82272 | -7.61474 | 16193 ft | 380 kts | 186° |
| 2026-04-29 13:31 | 37.79670 | -7.61476 | 15700 ft | 378 kts | 185° |
| 2026-04-29 13:31 | 37.77054 | -7.61478 | 15203 ft | 375 kts | 185° |
| 2026-04-29 13:31 | 37.74447 | -7.61478 | 14752 ft | 374 kts | 185° |
| 2026-04-29 13:31 | 37.71853 | -7.61477 | 14352 ft | 372 kts | 185° |
| 2026-04-29 13:32 | 37.69276 | -7.61481 | 13954 ft | 369 kts | 185° |
| 2026-04-29 13:32 | 37.66706 | -7.61485 | 13562 ft | 369 kts | 185° |
| 2026-04-29 13:32 | 37.64152 | -7.61488 | 13095 ft | 366 kts | 185° |
| 2026-04-29 13:32 | 37.61617 | -7.61492 | 12550 ft | 363 kts | 185° |
| 2026-04-29 13:33 | 37.59095 | -7.61492 | 12065 ft | 360 kts | 184° |
| 2026-04-29 13:33 | 37.56630 | -7.61485 | 11710 ft | 347 kts | 184° |
| 2026-04-29 13:33 | 37.54267 | -7.61480 | 11480 ft | 332 kts | 184° |
| 2026-04-29 13:33 | 37.52007 | -7.61475 | 11292 ft | 318 kts | 185° |
| 2026-04-29 13:34 | 37.49844 | -7.61473 | 11128 ft | 304 kts | 185° |
| 2026-04-29 13:34 | 37.47772 | -7.61473 | 10985 ft | 292 kts | 185° |
| 2026-04-29 13:34 | 37.45789 | -7.61470 | 10828 ft | 279 kts | 185° |
| 2026-04-29 13:34 | 37.43871 | -7.61472 | 10515 ft | 274 kts | 185° |
| 2026-04-29 13:35 | 37.41963 | -7.61475 | 10115 ft | 274 kts | 185° |
| 2026-04-29 13:35 | 37.40053 | -7.61475 | 9698 ft | 274 kts | 185° |
| 2026-04-29 13:35 | 37.38155 | -7.61475 | 9291 ft | 271 kts | 184° |
| 2026-04-29 13:35 | 37.36284 | -7.61476 | 8939 ft | 268 kts | 184° |
| 2026-04-29 13:36 | 37.34417 | -7.61479 | 8613 ft | 269 kts | 184° |
| 2026-04-29 13:36 | 37.32537 | -7.61479 | 8285 ft | 270 kts | 184° |
| 2026-04-29 13:36 | 37.30660 | -7.61477 | 7970 ft | 270 kts | 184° |
| 2026-04-29 13:36 | 37.28783 | -7.61477 | 7662 ft | 270 kts | 184° |
| 2026-04-29 13:37 | 37.26911 | -7.61480 | 7366 ft | 269 kts | 184° |
| 2026-04-29 13:37 | 37.25042 | -7.61479 | 7064 ft | 268 kts | 184° |
| 2026-04-29 13:37 | 37.23192 | -7.61476 | 6748 ft | 264 kts | 184° |
| 2026-04-29 13:37 | 37.21356 | -7.61476 | 6374 ft | 263 kts | 184° |
| 2026-04-29 13:38 | 37.19537 | -7.61477 | 6051 ft | 261 kts | 184° |
| 2026-04-29 13:38 | 37.17724 | -7.61482 | 5793 ft | 260 kts | 184° |
| 2026-04-29 13:38 | 37.15924 | -7.61483 | 5516 ft | 259 kts | 184° |
| 2026-04-29 13:38 | 37.14113 | -7.61485 | 5229 ft | 259 kts | 183° |
| 2026-04-29 13:39 | 37.12315 | -7.61486 | 5009 ft | 255 kts | 184° |
| 2026-04-29 13:39 | 37.10588 | -7.61493 | 4942 ft | 242 kts | 184° |
| 2026-04-29 13:39 | 37.08986 | -7.61507 | 4943 ft | 224 kts | 187° |
| 2026-04-29 13:39 | 37.07571 | -7.61932 | 4944 ft | 195 kts | 209° |
| 2026-04-29 13:40 | 37.06479 | -7.62748 | 4914 ft | 176 kts | 215° |
| 2026-04-29 13:40 | 37.05458 | -7.63519 | 4772 ft | 166 kts | 213° |
| 2026-04-29 13:40 | 37.04499 | -7.64226 | 4621 ft | 154 kts | 214° |
| 2026-04-29 13:40 | 37.03611 | -7.64876 | 4385 ft | 141 kts | 214° |
| 2026-04-29 13:41 | 37.02758 | -7.65496 | 3811 ft | 145 kts | 214° |
| 2026-04-29 13:41 | 37.01895 | -7.66128 | 3584 ft | 143 kts | 214° |
| 2026-04-29 13:41 | 37.01018 | -7.66754 | 3432 ft | 145 kts | 214° |
| 2026-04-29 13:41 | 37.00164 | -7.67414 | 3235 ft | 142 kts | 217° |
| 2026-04-29 13:42 | 36.99399 | -7.68175 | 3050 ft | 138 kts | 230° |
| 2026-04-29 13:42 | 36.98705 | -7.69049 | 2975 ft | 143 kts | 229° |
| 2026-04-29 13:42 | 36.98365 | -7.70180 | 2933 ft | 142 kts | 262° |
| 2026-04-29 13:42 | 36.98285 | -7.71403 | 2970 ft | 141 kts | 266° |
| 2026-04-29 13:43 | 36.98308 | -7.72631 | 2973 ft | 142 kts | 272° |
| 2026-04-29 13:43 | 36.98411 | -7.73862 | 2991 ft | 142 kts | 273° |
| 2026-04-29 13:43 | 36.98528 | -7.75085 | 2978 ft | 141 kts | 274° |
| 2026-04-29 13:43 | 36.98659 | -7.76302 | 2962 ft | 141 kts | 275° |
| 2026-04-29 13:44 | 36.98807 | -7.77508 | 2882 ft | 140 kts | 276° |
| 2026-04-29 13:44 | 36.98969 | -7.78717 | 2746 ft | 141 kts | 276° |
| 2026-04-29 13:44 | 36.99120 | -7.79936 | 2590 ft | 142 kts | 274° |
| 2026-04-29 13:44 | 36.99263 | -7.81151 | 2418 ft | 141 kts | 276° |
| 2026-04-29 13:45 | 36.99428 | -7.82352 | 2180 ft | 141 kts | 276° |
| 2026-04-29 13:45 | 36.99608 | -7.83566 | 2007 ft | 141 kts | 277° |
| 2026-04-29 13:45 | 36.99778 | -7.84704 | 1887 ft | 130 kts | 278° |
| 2026-04-29 13:45 | 36.99956 | -7.85833 | 1835 ft | 134 kts | 276° |
| 2026-04-29 13:46 | 37.00120 | -7.86987 | 1722 ft | 134 kts | 275° |
| 2026-04-29 13:46 | 37.00274 | -7.88129 | 1554 ft | 133 kts | 275° |
| 2026-04-29 13:46 | 37.00424 | -7.89278 | 1340 ft | 134 kts | 275° |
| 2026-04-29 13:46 | 37.00576 | -7.90404 | 1045 ft | 131 kts | 276° |
| 2026-04-29 13:47 | 37.00737 | -7.91535 | 782 ft | 131 kts | 276° |
| 2026-04-29 13:47 | 37.00888 | -7.92629 | 510 ft | 129 kts | 275° |
| 2026-04-29 13:47 | 37.01046 | -7.93739 | 311 ft | 134 kts | 275° |
| 2026-04-29 13:47 | 37.01208 | -7.94912 | 181 ft | 141 kts | 274° |
| 2026-04-29 13:48 | 37.01386 | -7.96156 | 48 ft | 148 kts | 277° |
| 2026-04-29 13:48 | 37.01540 | -7.97319 | 24 ft | 113 kts | 279° |
| 2026-04-29 13:48 | 37.01640 | -7.97946 | 27 ft | 48 kts | 291° |
| 2026-04-29 13:48 | 37.01759 | -7.98203 | 27 ft | 21 kts | 315° |
| 2026-04-29 13:49 | 37.01853 | -7.98199 | 26 ft | 16 kts | 77° |
| 2026-04-29 13:49 | 37.01835 | -7.98051 | 26 ft | 19 kts | 99° |
| 2026-04-29 13:49 | 37.01811 | -7.97873 | 26 ft | 22 kts | 100° |
| 2026-04-29 13:49 | 37.01781 | -7.97673 | 26 ft | 24 kts | 100° |
| 2026-04-29 13:50 | 37.01752 | -7.97454 | 26 ft | 26 kts | 99° |
| 2026-04-29 13:50 | 37.01718 | -7.97221 | 26 ft | 28 kts | 101° |
| 2026-04-29 13:50 | 37.01688 | -7.97021 | 26 ft | 16 kts | 100° |
| 2026-04-29 13:50 | 37.01697 | -7.96914 | 30 ft | 13 kts | 36° |
| 2026-04-29 13:51 | 37.01792 | -7.96882 | 26 ft | 15 kts | 18° |
| 2026-04-29 13:51 | 37.01835 | -7.96858 | 25 ft | 2 kts | 18° |
| 2026-04-29 13:51 | 37.01863 | -7.96849 | 25 ft | 6 kts | 11° |
| 2026-04-29 13:51 | 37.01905 | -7.96840 | 25 ft | 3 kts | 10° |
| 2026-04-29 13:52 | 37.01919 | -7.96836 | 25 ft | 0 kts | 10° |
| 2026-04-29 13:52 | 37.01913 | -7.96838 | 25 ft | 1 kts | 10° |
| 2026-04-29 13:52 | 37.01912 | -7.96838 | 25 ft | 0 kts | 10° |